createdAt,value
2018-12-08T00:01:11.615Z,10.87
2018-12-08T00:03:40.082Z,11.57
2018-12-08T00:06:08.360Z,12.47
2018-12-08T00:08:36.647Z,12.63
2018-12-08T00:11:05.069Z,10.90
2018-12-08T00:13:33.435Z,9.33
2018-12-08T00:16:02.032Z,11.23
2018-12-08T00:18:30.307Z,17.10
2018-12-08T00:21:01.927Z,12.23
2018-12-08T00:23:30.434Z,15.93
2018-12-08T00:25:58.763Z,10.13
2018-12-08T00:28:28.299Z,15.17
2018-12-08T00:31:07.811Z,9.43
2018-12-08T00:33:36.079Z,15.40
2018-12-08T00:36:04.351Z,10.40
2018-12-08T00:38:32.615Z,10.40
2018-12-08T00:41:01.263Z,18.63
2018-12-08T00:43:29.544Z,10.30
2018-12-08T00:45:57.911Z,14.37
2018-12-08T00:48:26.271Z,13.93
2018-12-08T00:50:54.615Z,12.47
2018-12-08T00:53:23.367Z,11.47
2018-12-08T00:55:51.896Z,8.73
2018-12-08T00:59:23.192Z,15.03
2018-12-08T01:01:51.550Z,11.33
2018-12-08T01:04:19.466Z,10.70
2018-12-08T01:06:48.123Z,13.77
2018-12-08T01:09:16.367Z,9.17
2018-12-08T01:11:44.595Z,9.40
2018-12-08T01:14:12.831Z,13.73
2018-12-08T01:16:41.295Z,12.07
2018-12-08T01:19:09.551Z,7.90
2018-12-08T01:21:37.779Z,5.87
2018-12-08T01:24:06.012Z,8.27
2018-12-08T01:26:34.260Z,8.20
2018-12-08T01:29:02.512Z,6.93
2018-12-08T01:31:30.768Z,6.93
2018-12-08T01:33:59.003Z,13.90
2018-12-08T01:36:27.404Z,7.33
2018-12-08T01:38:55.656Z,8.13
2018-12-08T01:41:23.883Z,8.77
2018-12-08T01:43:52.162Z,12.20
2018-12-08T01:46:20.471Z,8.47
2018-12-08T01:48:48.843Z,9.17
2018-12-08T01:51:17.091Z,9.60
2018-12-08T01:53:45.323Z,9.87
2018-12-08T01:56:13.652Z,12.07
2018-12-08T01:58:42.004Z,9.63
2018-12-08T02:01:10.415Z,12.70
2018-12-08T02:03:38.639Z,11.07
2018-12-08T02:06:06.967Z,11.30
2018-12-08T02:08:35.244Z,13.07
2018-12-08T02:11:03.600Z,14.63
2018-12-08T02:13:31.869Z,11.93
2018-12-08T02:16:00.175Z,13.77
2018-12-08T02:18:28.483Z,13.43
2018-12-08T02:20:56.986Z,10.00
2018-12-08T02:23:25.296Z,13.70
2018-12-08T02:25:53.775Z,15.23
2018-12-08T02:28:22.039Z,14.23
2018-12-08T02:30:50.695Z,12.23
2018-12-08T02:33:19.003Z,14.13
2018-12-08T02:35:47.234Z,9.80
2018-12-08T02:38:15.511Z,13.90
2018-12-08T02:40:43.818Z,8.97
2018-12-08T02:43:12.184Z,11.03
2018-12-08T02:45:40.418Z,8.13
2018-12-08T02:48:08.650Z,14.07
2018-12-08T02:50:37.047Z,11.33
2018-12-08T02:53:05.282Z,10.63
2018-12-08T02:55:33.682Z,13.27
2018-12-08T02:58:02.046Z,10.47
2018-12-08T03:00:30.394Z,9.63
2018-12-08T03:02:58.862Z,7.90
2018-12-08T03:05:27.097Z,12.67
2018-12-08T03:07:55.373Z,13.77
2018-12-08T03:10:23.615Z,13.30
2018-12-08T03:12:51.854Z,10.60
2018-12-08T03:15:20.313Z,8.97
2018-12-08T03:17:48.555Z,10.80
2018-12-08T03:20:16.918Z,11.07
2018-12-08T03:22:45.237Z,14.37
2018-12-08T03:25:13.601Z,8.23
2018-12-08T03:27:41.825Z,11.87
2018-12-08T03:30:10.235Z,10.97
2018-12-08T03:32:38.583Z,9.57
2018-12-08T03:35:07.149Z,15.77
2018-12-08T03:37:35.422Z,13.40
2018-12-08T03:40:03.909Z,8.83
2018-12-08T03:42:32.197Z,13.57
2018-12-08T03:45:01.298Z,16.13
2018-12-08T03:47:29.557Z,11.07
2018-12-08T03:49:57.831Z,12.43
2018-12-08T03:52:26.208Z,13.20
2018-12-08T03:54:54.494Z,14.40
2018-12-08T03:57:22.758Z,12.63
2018-12-08T03:59:51.006Z,9.83
2018-12-08T04:02:19.271Z,15.03
2018-12-08T04:04:47.606Z,13.73
2018-12-08T04:07:15.890Z,16.80
2018-12-08T04:09:44.147Z,15.70
2018-12-08T04:12:12.382Z,13.87
2018-12-08T04:14:40.709Z,10.97
2018-12-08T04:17:08.971Z,12.10
2018-12-08T04:19:37.299Z,10.03
2018-12-08T04:22:05.522Z,14.57
2018-12-08T04:24:33.809Z,12.77
2018-12-08T04:27:02.076Z,13.80
2018-12-08T04:29:30.302Z,19.57
2018-12-08T04:31:58.552Z,13.80
2018-12-08T04:34:26.774Z,13.30
2018-12-08T04:36:55.131Z,13.87
2018-12-08T04:39:23.370Z,15.90
2018-12-08T04:41:51.601Z,12.43
2018-12-08T04:44:19.873Z,7.70
2018-12-08T04:46:48.101Z,11.63
2018-12-08T04:49:16.465Z,11.47
2018-12-08T04:51:44.717Z,15.43
2018-12-08T04:54:12.970Z,13.53
2018-12-08T04:56:41.254Z,12.47
2018-12-08T04:59:09.577Z,11.10
2018-12-08T05:01:37.858Z,13.47
2018-12-08T05:04:06.086Z,12.63
2018-12-08T05:06:34.350Z,11.17
2018-12-08T05:09:02.690Z,12.47
2018-12-08T05:11:30.982Z,13.83
2018-12-08T05:13:59.218Z,14.33
2018-12-08T05:16:27.462Z,13.93
2018-12-08T05:18:55.720Z,10.07
2018-12-08T05:21:23.982Z,13.43
2018-12-08T05:23:52.231Z,17.07
2018-12-08T05:26:20.518Z,12.57
2018-12-08T05:28:48.768Z,11.07
2018-12-08T05:31:17.031Z,10.53
2018-12-08T05:33:45.309Z,14.27
2018-12-08T05:36:13.558Z,14.63
2018-12-08T05:38:41.824Z,14.33
2018-12-08T05:41:10.051Z,11.00
2018-12-08T05:43:38.303Z,13.73
2018-12-08T05:46:07.015Z,11.80
2018-12-08T05:48:35.267Z,8.13
2018-12-08T05:51:03.551Z,13.23
2018-12-08T05:53:31.827Z,9.90
2018-12-08T05:56:00.076Z,13.33
2018-12-08T05:58:28.353Z,10.80
2018-12-08T06:00:56.664Z,14.87
2018-12-08T06:03:24.950Z,11.90
2018-12-08T06:05:53.215Z,13.63
2018-12-08T06:08:21.508Z,13.50
2018-12-08T06:10:49.772Z,14.77
2018-12-08T06:13:18.088Z,16.47
2018-12-08T06:15:46.344Z,15.00
2018-12-08T06:18:14.610Z,10.80
2018-12-08T06:20:42.884Z,16.83
2018-12-08T06:23:11.149Z,12.90
2018-12-08T06:25:39.708Z,11.73
2018-12-08T06:28:27.762Z,12.43
2018-12-08T06:30:57.311Z,16.13
2018-12-08T06:33:25.579Z,15.63
2018-12-08T06:35:53.836Z,11.03
2018-12-08T06:38:22.068Z,10.73
2018-12-08T06:40:50.312Z,15.67
2018-12-08T06:43:18.558Z,14.03
2018-12-08T06:45:46.800Z,16.30
2018-12-08T06:48:15.049Z,15.50
2018-12-08T06:50:43.396Z,11.83
2018-12-08T06:53:11.685Z,13.80
2018-12-08T06:55:39.965Z,13.33
2018-12-08T06:58:08.205Z,11.83
2018-12-08T07:00:36.565Z,9.40
2018-12-08T07:03:04.857Z,13.30
2018-12-08T07:05:33.129Z,13.80
2018-12-08T07:08:01.373Z,9.07
2018-12-08T07:10:29.733Z,14.23
2018-12-08T07:12:58.015Z,13.13
2018-12-08T07:15:26.277Z,11.67
2018-12-08T07:17:54.536Z,10.13
2018-12-08T07:20:22.821Z,10.47
2018-12-08T07:22:51.093Z,10.17
2018-12-08T07:25:19.366Z,13.90
2018-12-08T07:27:47.623Z,11.60
2018-12-08T07:30:15.889Z,16.30
2018-12-08T07:32:50.917Z,13.33
2018-12-08T07:35:19.178Z,6.80
2018-12-08T07:37:47.439Z,15.67
2018-12-08T07:40:15.721Z,11.40
2018-12-08T07:42:44.020Z,11.80
2018-12-08T07:45:12.319Z,11.27
2018-12-08T07:47:40.581Z,12.17
2018-12-08T07:50:09.561Z,12.37
2018-12-08T07:52:37.821Z,10.57
2018-12-08T07:55:07.833Z,15.00
2018-12-08T07:57:36.109Z,10.53
2018-12-08T08:00:08.505Z,9.10
2018-12-08T08:02:36.761Z,8.70
2018-12-08T08:05:05.665Z,12.37
2018-12-08T08:07:33.933Z,10.77
2018-12-08T08:10:02.213Z,10.87
2018-12-08T08:12:30.493Z,10.17
2018-12-08T08:14:58.745Z,9.33
2018-12-08T08:17:27.025Z,8.13
2018-12-08T08:19:55.265Z,8.07
2018-12-08T08:22:23.521Z,9.83
2018-12-08T08:24:51.797Z,7.17
2018-12-08T08:27:20.045Z,7.93
2018-12-08T08:29:48.394Z,8.63
2018-12-08T08:32:16.741Z,6.57
2018-12-08T08:34:44.993Z,10.30
2018-12-08T08:37:13.250Z,8.57
2018-12-08T08:39:41.526Z,9.73
2018-12-08T08:42:09.777Z,8.13
2018-12-08T08:44:38.027Z,11.27
2018-12-08T08:47:06.385Z,10.57
2018-12-08T08:49:34.618Z,10.73
2018-12-08T08:52:02.868Z,12.10
2018-12-08T08:54:31.094Z,10.83
2018-12-08T08:56:59.338Z,11.40
2018-12-08T08:59:27.587Z,9.70
2018-12-08T09:01:55.850Z,8.67
2018-12-08T09:04:24.086Z,9.30
2018-12-08T09:06:52.360Z,11.17
2018-12-08T09:09:20.670Z,10.00
2018-12-08T09:11:55.738Z,10.77
2018-12-08T09:14:23.971Z,12.33
2018-12-08T09:16:52.254Z,9.47
2018-12-08T09:19:20.562Z,10.40
2018-12-08T09:21:48.862Z,7.77
2018-12-08T09:24:17.174Z,10.47
2018-12-08T09:26:45.459Z,11.77
2018-12-08T09:29:13.863Z,10.53
2018-12-08T09:31:42.349Z,9.13
2018-12-08T09:34:10.623Z,9.07
2018-12-08T09:36:39.047Z,7.93
2018-12-08T09:39:08.356Z,8.77
2018-12-08T09:41:36.811Z,6.93
2018-12-08T09:44:06.031Z,9.67
2018-12-08T09:46:34.293Z,10.70
2018-12-08T09:49:02.571Z,12.53
2018-12-08T09:51:30.911Z,10.43
2018-12-08T09:53:59.259Z,9.73
2018-12-08T09:56:27.603Z,7.87
2018-12-08T09:58:55.915Z,8.83
2018-12-08T10:01:24.151Z,8.07
2018-12-08T10:03:52.407Z,11.40
2018-12-08T10:06:20.657Z,10.83
2018-12-08T10:08:48.888Z,11.33
2018-12-08T10:11:17.127Z,10.83
2018-12-08T10:13:45.412Z,9.73
2018-12-08T10:16:13.717Z,12.57
2018-12-08T10:18:42.068Z,9.73
2018-12-08T10:21:10.336Z,9.83
2018-12-08T10:23:38.565Z,13.90
2018-12-08T10:26:06.808Z,10.67
2018-12-08T10:28:35.157Z,7.60
2018-12-08T10:31:03.420Z,10.10
2018-12-08T10:33:31.776Z,9.37
2018-12-08T10:36:00.065Z,6.67
2018-12-08T10:38:28.372Z,10.27
2018-12-08T10:40:56.720Z,8.73
2018-12-08T10:43:25.064Z,10.13
2018-12-08T10:45:53.305Z,8.73
2018-12-08T10:48:21.677Z,11.60
2018-12-08T10:50:50.028Z,11.03
2018-12-08T10:53:18.364Z,13.23
2018-12-08T10:55:46.653Z,12.17
2018-12-08T10:58:14.948Z,13.30
2018-12-08T11:07:43.013Z,10.70
2018-12-08T11:10:11.386Z,15.17
2018-12-08T11:12:39.850Z,14.93
2018-12-08T11:15:08.360Z,15.57
2018-12-08T11:17:36.680Z,9.03
2018-12-08T11:20:05.506Z,16.87
2018-12-08T11:22:33.924Z,15.53
2018-12-08T11:25:02.254Z,20.83
2018-12-08T11:27:30.640Z,18.30
2018-12-08T11:29:59.044Z,18.00
2018-12-08T11:32:27.384Z,18.13
2018-12-08T11:34:55.920Z,22.97
2018-12-08T11:37:24.256Z,15.30
2018-12-08T11:39:52.576Z,15.50
2018-12-08T11:42:20.884Z,17.87
2018-12-08T11:44:49.247Z,16.30
2018-12-08T11:47:17.617Z,12.90
2018-12-08T11:49:45.925Z,17.87
2018-12-08T11:52:14.497Z,20.03
2018-12-08T11:54:55.409Z,16.57
2018-12-08T11:57:36.521Z,12.20
2018-12-08T12:00:06.125Z,12.70
2018-12-08T12:02:34.430Z,14.17
2018-12-08T12:05:02.825Z,17.20
2018-12-08T12:07:31.173Z,16.53
2018-12-08T12:09:59.605Z,13.50
2018-12-08T12:12:27.933Z,16.73
2018-12-08T12:14:56.305Z,18.70
2018-12-08T12:17:24.649Z,16.27
2018-12-08T12:19:53.081Z,15.73
2018-12-08T12:22:21.497Z,15.70
2018-12-08T12:24:49.822Z,14.97
2018-12-08T12:27:18.145Z,17.33
2018-12-08T12:29:46.441Z,15.03
2018-12-08T12:32:20.843Z,15.80
2018-12-08T12:35:07.749Z,17.50
2018-12-08T12:37:36.089Z,15.63
2018-12-08T12:40:04.825Z,14.63
2018-12-08T12:42:33.177Z,15.67
2018-12-08T12:45:01.738Z,14.13
2018-12-08T12:47:30.065Z,13.93
2018-12-08T12:49:58.421Z,13.87
2018-12-08T12:52:26.865Z,17.27
2018-12-08T12:55:49.212Z,13.27
2018-12-08T13:01:34.076Z,12.97
2018-12-08T13:04:02.609Z,13.77
2018-12-08T13:06:31.049Z,19.17
2018-12-08T13:08:59.344Z,11.33
2018-12-08T13:11:27.389Z,14.40
2018-12-08T13:13:55.475Z,12.97
2018-12-08T13:16:43.374Z,17.23
2018-12-08T13:19:17.621Z,18.17
2018-12-08T13:21:45.709Z,10.47
2018-12-08T13:24:13.781Z,10.13
2018-12-08T13:26:41.826Z,11.40
2018-12-08T13:29:09.903Z,9.30
2018-12-08T13:31:37.997Z,13.57
2018-12-08T13:34:11.642Z,13.67
2018-12-08T13:36:39.669Z,10.27
2018-12-08T13:39:07.746Z,12.03
2018-12-08T13:41:35.878Z,13.90
2018-12-08T13:44:04.596Z,18.83
2018-12-08T13:46:32.898Z,16.67
2018-12-08T13:49:00.930Z,10.87
2018-12-08T13:51:28.982Z,13.20
2018-12-08T13:53:57.286Z,14.73
2018-12-08T13:56:25.341Z,10.40
2018-12-08T13:58:53.400Z,16.70
2018-12-08T14:01:21.482Z,16.50
2018-12-08T14:03:49.507Z,15.60
2018-12-08T14:06:17.578Z,13.57
2018-12-08T14:08:46.022Z,13.00
2018-12-08T14:11:14.062Z,13.37
2018-12-08T14:13:42.112Z,14.63
2018-12-08T14:16:10.134Z,13.53
2018-12-08T14:18:38.531Z,12.27
2018-12-08T14:21:06.894Z,15.03
2018-12-08T14:23:35.070Z,14.83
2018-12-08T14:26:03.303Z,10.23
2018-12-08T14:28:31.559Z,16.17
2018-12-08T14:30:59.905Z,17.00
2018-12-08T14:33:28.123Z,12.07
2018-12-08T14:35:56.355Z,10.90
2018-12-08T14:38:25.243Z,14.03
2018-12-08T14:40:53.357Z,8.43
2018-12-08T14:43:21.503Z,12.70
2018-12-08T14:45:49.871Z,15.13
2018-12-08T14:48:18.003Z,9.17
2018-12-08T14:50:46.267Z,15.67
2018-12-08T14:53:14.343Z,14.87
2018-12-08T14:55:42.495Z,10.70
2018-12-08T14:58:10.579Z,11.60
2018-12-08T15:00:38.688Z,14.70
2018-12-08T15:03:06.768Z,12.57
2018-12-08T15:05:34.860Z,12.17
2018-12-08T15:08:02.951Z,11.13
2018-12-08T15:10:31.080Z,12.60
2018-12-08T15:13:00.144Z,14.90
2018-12-08T15:15:28.396Z,12.20
2018-12-08T15:17:56.491Z,13.17
2018-12-08T15:20:24.664Z,11.30
2018-12-08T15:22:52.732Z,9.57
2018-12-08T15:25:20.888Z,10.93
2018-12-08T15:27:49.084Z,11.90
2018-12-08T15:30:17.312Z,9.10
2018-12-08T15:32:45.372Z,8.30
2018-12-08T15:35:13.692Z,13.77
2018-12-08T15:37:57.428Z,9.53
2018-12-08T15:40:46.188Z,5.10
2018-12-08T15:43:45.189Z,9.97
2018-12-08T15:46:23.192Z,7.07
2018-12-08T16:21:07.109Z,11.50
2018-12-08T16:23:35.253Z,10.80
2018-12-08T16:26:03.385Z,12.30
2018-12-08T16:28:31.501Z,11.67
2018-12-08T16:30:59.627Z,10.57
2018-12-08T16:33:27.793Z,11.73
2018-12-08T16:35:56.129Z,11.73
2018-12-08T16:38:24.410Z,10.50
2018-12-08T16:40:52.627Z,10.83
2018-12-08T16:43:20.675Z,12.70
2018-12-08T16:45:48.930Z,15.80
2018-12-08T16:48:17.174Z,11.57
2018-12-08T16:50:45.462Z,16.00
2018-12-08T16:53:13.762Z,13.47
2018-12-08T16:55:54.502Z,14.07
2018-12-08T16:58:22.838Z,16.40
2018-12-08T17:00:51.113Z,17.07
2018-12-08T17:03:19.153Z,13.63
2018-12-08T17:05:47.157Z,17.10
2018-12-08T17:08:15.163Z,13.10
2018-12-08T17:10:43.250Z,20.27
2018-12-08T17:13:11.256Z,19.40
2018-12-08T17:15:39.277Z,19.80
2018-12-08T17:18:08.517Z,16.90
2018-12-08T17:20:36.670Z,19.23
2018-12-08T17:23:04.646Z,19.07
2018-12-08T17:25:32.806Z,20.57
2018-12-08T17:28:00.802Z,15.23
2018-12-08T17:30:28.826Z,20.13
2018-12-08T17:32:56.806Z,14.10
2018-12-08T17:35:24.931Z,22.07
2018-12-08T17:37:52.934Z,20.50
2018-12-08T17:40:20.943Z,19.50
2018-12-08T17:42:49.027Z,19.07
2018-12-08T17:45:17.030Z,20.53
2018-12-08T17:47:45.158Z,21.33
2018-12-08T17:50:13.259Z,18.23
2018-12-08T17:52:41.339Z,18.23
2018-12-08T17:55:09.434Z,14.77
2018-12-08T17:57:37.431Z,17.50
2018-12-08T18:00:05.731Z,22.33
2018-12-08T18:02:33.737Z,16.80
2018-12-08T18:05:01.736Z,15.77
2018-12-08T18:07:29.739Z,14.30
2018-12-08T18:09:57.731Z,17.90
2018-12-08T18:12:25.979Z,18.57
2018-12-08T18:14:53.986Z,17.00
2018-12-08T18:17:22.087Z,23.00
2018-12-08T18:19:50.087Z,16.07
2018-12-08T18:22:18.088Z,16.03
2018-12-08T18:24:46.207Z,16.33
2018-12-08T18:27:14.311Z,16.20
2018-12-08T18:29:42.311Z,16.23
2018-12-08T18:32:10.292Z,20.40
2018-12-08T18:34:38.284Z,17.43
2018-12-08T18:37:06.280Z,19.90
2018-12-08T18:39:34.271Z,16.03
2018-12-08T18:42:02.267Z,17.80
2018-12-08T18:44:30.267Z,20.63
2018-12-08T18:46:58.263Z,18.77
2018-12-08T18:49:26.292Z,21.90
2018-12-08T18:51:54.299Z,23.97
2018-12-08T18:54:22.395Z,24.90
2018-12-08T18:56:50.407Z,20.53
2018-12-08T18:59:18.420Z,18.37
2018-12-08T19:01:46.411Z,17.70
2018-12-08T19:04:14.436Z,17.67
2018-12-08T19:06:42.428Z,19.47
2018-12-08T19:09:10.460Z,16.53
2018-12-08T19:11:38.464Z,12.40
2018-12-08T19:14:06.491Z,11.03
2018-12-08T19:16:34.487Z,12.53
2018-12-08T19:19:02.496Z,12.03
2018-12-08T19:21:30.507Z,12.53
2018-12-08T19:23:58.492Z,8.67
2018-12-08T19:26:26.547Z,8.33
2018-12-08T19:28:54.540Z,10.87
2018-12-08T19:31:22.542Z,7.10
2018-12-08T19:33:50.540Z,7.50
2018-12-08T19:36:18.528Z,6.80
2018-12-08T19:38:46.528Z,5.67
2018-12-08T19:41:14.524Z,5.43
2018-12-08T19:43:42.500Z,5.07
2018-12-08T19:46:10.487Z,7.07
2018-12-08T19:48:38.588Z,5.17
2018-12-08T19:51:06.660Z,4.13
2018-12-08T19:53:34.681Z,4.80
2018-12-08T19:56:03.476Z,2.53
2018-12-08T19:58:31.500Z,2.90
2018-12-08T20:00:59.492Z,3.63
2018-12-08T20:03:27.488Z,3.53
2018-12-08T20:05:55.508Z,3.00
2018-12-08T20:08:23.521Z,3.17
2018-12-08T20:10:51.489Z,2.90
2018-12-08T20:13:19.517Z,2.47
2018-12-08T20:15:47.688Z,2.63
2018-12-08T20:18:15.692Z,4.23
2018-12-08T20:20:43.688Z,3.10
2018-12-08T20:23:11.689Z,2.80
2018-12-08T20:25:39.678Z,3.13
2018-12-08T20:28:07.677Z,3.73
2018-12-08T20:30:35.698Z,4.10
2018-12-08T20:33:03.705Z,3.50
2018-12-08T20:35:31.678Z,2.90
2018-12-08T20:37:59.674Z,3.87
2018-12-08T20:40:27.646Z,2.37
2018-12-08T20:42:55.678Z,2.43
2018-12-08T20:45:23.682Z,2.27
2018-12-08T20:47:51.666Z,2.13
2018-12-08T20:50:19.679Z,1.63
2018-12-08T20:52:47.667Z,1.60
2018-12-08T20:55:15.642Z,1.87
2018-12-08T20:57:43.631Z,2.20
2018-12-08T21:00:11.626Z,1.83
2018-12-08T21:02:39.596Z,1.80
2018-12-08T21:05:07.782Z,2.00
2018-12-08T21:07:35.861Z,2.20
2018-12-08T21:10:04.542Z,1.73
2018-12-08T21:12:32.534Z,1.90
2018-12-08T21:15:00.614Z,1.83
2018-12-08T21:17:28.599Z,2.97
2018-12-08T21:19:56.686Z,3.67
2018-12-08T21:22:24.661Z,3.70
2018-12-08T21:24:52.693Z,3.83
2018-12-08T21:27:20.703Z,4.40
2018-12-08T21:29:48.727Z,3.33
2018-12-08T21:32:16.702Z,1.87
2018-12-08T21:34:44.706Z,1.63
2018-12-08T21:37:12.706Z,2.60
2018-12-08T21:39:40.707Z,4.57
2018-12-08T21:42:08.697Z,2.47
2018-12-08T21:44:36.698Z,2.67
2018-12-08T21:47:04.783Z,2.70
2018-12-08T21:49:32.783Z,4.53
2018-12-08T21:52:00.782Z,2.77
2018-12-08T21:54:28.770Z,4.13
2018-12-08T21:56:56.829Z,4.70
2018-12-08T21:59:24.827Z,2.83
2018-12-08T22:01:52.882Z,3.17
2018-12-08T22:04:20.863Z,3.30
2018-12-08T22:06:48.982Z,4.77
2018-12-08T22:09:16.983Z,3.33
2018-12-08T22:11:45.019Z,3.97
2018-12-08T22:14:13.014Z,3.37
2018-12-08T22:16:41.007Z,7.13
2018-12-08T22:19:09.038Z,5.37
2018-12-08T22:21:37.047Z,4.50
2018-12-08T22:24:05.066Z,6.53
2018-12-08T22:26:33.042Z,5.47
2018-12-08T22:29:01.066Z,5.90
2018-12-08T22:31:29.067Z,6.27
2018-12-08T22:33:57.083Z,6.57
2018-12-08T22:36:25.103Z,5.03
2018-12-08T22:38:53.123Z,2.63
2018-12-08T22:41:21.123Z,3.97
2018-12-08T22:43:49.130Z,4.20
2018-12-08T22:46:17.171Z,4.90
2018-12-08T22:48:45.187Z,6.23
2018-12-08T22:51:13.212Z,5.70
2018-12-08T22:53:41.215Z,4.97
2018-12-08T22:56:09.218Z,6.73
2018-12-08T22:58:37.211Z,7.17
2018-12-08T23:01:05.223Z,7.87
2018-12-08T23:03:33.223Z,10.03
2018-12-08T23:06:01.215Z,13.00
2018-12-08T23:08:29.203Z,2.67
2018-12-08T23:10:57.234Z,4.37
2018-12-08T23:13:25.323Z,5.27
2018-12-08T23:15:53.463Z,2.10
2018-12-08T23:18:21.643Z,5.47
2018-12-08T23:20:49.963Z,2.67
2018-12-08T23:23:17.976Z,2.20
2018-12-08T23:25:46.139Z,3.50
2018-12-08T23:28:14.327Z,3.97
2018-12-08T23:30:42.839Z,5.73
2018-12-08T23:33:17.463Z,5.33
2018-12-08T23:35:45.501Z,4.30
2018-12-08T23:38:13.535Z,5.10
2018-12-08T23:40:41.519Z,5.37
2018-12-08T23:43:09.535Z,4.27
2018-12-08T23:45:37.595Z,8.87
2018-12-08T23:48:05.607Z,4.73
2018-12-08T23:50:34.953Z,4.80
2018-12-08T23:53:03.119Z,5.63
2018-12-08T23:55:31.123Z,5.80
2018-12-08T23:57:59.107Z,4.60
